PVI398 LIAU-LIRU
Flight info
| Callsign | PVI398 |
|---|---|
| Flight time | N/A |
| Altitude | 2000 |
| Route | LIAU/26 MONDRAGONE TERRACINA APRILIA LARIANO SETTEBAGNI LIRA/16 |
| Aircraft | C185/L-VGD/A |
Departure
| Time | N/A |
|---|---|
| Airport | Capua Airport (LIAU) |
Arrival
| Time | 2026-04-19 08:24 |
|---|---|
| Airport | Rome Urbe Airport (LIRU) |
| Time | Latitude | Longitude | Altitude | Speed | Heading |
|---|---|---|---|---|---|
| 2026-04-19 08:11 | 41.76804 | 12.82006 | 1991 ft | 113 kts | 345° |
| 2026-04-19 08:12 | 41.77568 | 12.81737 | 1952 ft | 116 kts | 345° |
| 2026-04-19 08:12 | 41.78367 | 12.81456 | 1857 ft | 121 kts | 345° |
| 2026-04-19 08:12 | 41.79190 | 12.81167 | 1762 ft | 123 kts | 345° |
| 2026-04-19 08:12 | 41.80018 | 12.80875 | 1675 ft | 122 kts | 345° |
| 2026-04-19 08:13 | 41.80839 | 12.80586 | 1568 ft | 122 kts | 346° |
| 2026-04-19 08:13 | 41.81634 | 12.80238 | 1502 ft | 118 kts | 328° |
| 2026-04-19 08:13 | 41.82078 | 12.79371 | 1490 ft | 112 kts | 294° |
| 2026-04-19 08:13 | 41.82413 | 12.78445 | 1495 ft | 110 kts | 297° |
| 2026-04-19 08:14 | 41.82751 | 12.77531 | 1489 ft | 109 kts | 297° |
| 2026-04-19 08:14 | 41.83414 | 12.75723 | 1495 ft | 108 kts | 294° |
| 2026-04-19 08:14 | 41.83742 | 12.74833 | 1498 ft | 102 kts | 295° |
| 2026-04-19 08:15 | 41.84056 | 12.73972 | 1500 ft | 106 kts | 294° |
| 2026-04-19 08:15 | 41.84384 | 12.73065 | 1505 ft | 113 kts | 294° |
| 2026-04-19 08:15 | 41.84741 | 12.72088 | 1510 ft | 119 kts | 294° |
| 2026-04-19 08:15 | 41.85114 | 12.71069 | 1510 ft | 123 kts | 295° |
| 2026-04-19 08:16 | 41.85493 | 12.70032 | 1513 ft | 124 kts | 294° |
| 2026-04-19 08:16 | 41.85872 | 12.68991 | 1510 ft | 124 kts | 294° |
| 2026-04-19 08:16 | 41.86250 | 12.67958 | 1513 ft | 124 kts | 294° |
| 2026-04-19 08:16 | 41.86631 | 12.66911 | 1510 ft | 125 kts | 294° |
| 2026-04-19 08:17 | 41.87015 | 12.65858 | 1509 ft | 126 kts | 294° |
| 2026-04-19 08:17 | 41.87400 | 12.64801 | 1510 ft | 127 kts | 294° |
| 2026-04-19 08:17 | 41.87787 | 12.63737 | 1511 ft | 127 kts | 294° |
| 2026-04-19 08:17 | 41.88203 | 12.62697 | 1511 ft | 127 kts | 308° |
| 2026-04-19 08:18 | 41.88986 | 12.62212 | 1510 ft | 129 kts | 357° |
| 2026-04-19 08:18 | 41.89886 | 12.62225 | 1510 ft | 130 kts | 0° |
| 2026-04-19 08:18 | 41.90783 | 12.62225 | 1512 ft | 128 kts | 0° |
| 2026-04-19 08:18 | 41.91679 | 12.62226 | 1506 ft | 128 kts | 360° |
| 2026-04-19 08:19 | 41.92565 | 12.62226 | 1509 ft | 127 kts | 359° |
| 2026-04-19 08:19 | 41.93448 | 12.62224 | 1508 ft | 127 kts | 358° |
| 2026-04-19 08:19 | 41.94230 | 12.61781 | 1501 ft | 125 kts | 310° |
| 2026-04-19 08:19 | 41.94696 | 12.60802 | 1503 ft | 124 kts | 300° |
| 2026-04-19 08:20 | 41.95156 | 12.59813 | 1503 ft | 125 kts | 300° |
| 2026-04-19 08:20 | 41.95617 | 12.58819 | 1504 ft | 125 kts | 300° |
| 2026-04-19 08:20 | 41.96077 | 12.57831 | 1504 ft | 125 kts | 300° |
| 2026-04-19 08:20 | 41.96538 | 12.56837 | 1506 ft | 126 kts | 300° |
| 2026-04-19 08:21 | 41.97000 | 12.55842 | 1506 ft | 125 kts | 301° |
| 2026-04-19 08:21 | 41.97458 | 12.54856 | 1507 ft | 124 kts | 301° |
| 2026-04-19 08:21 | 41.97917 | 12.53867 | 1507 ft | 125 kts | 300° |
| 2026-04-19 08:21 | 41.98376 | 12.52876 | 1503 ft | 124 kts | 300° |
| 2026-04-19 08:22 | 41.98829 | 12.51886 | 1502 ft | 125 kts | 297° |
| 2026-04-19 08:22 | 41.98903 | 12.50800 | 1490 ft | 112 kts | 248° |
| 2026-04-19 08:22 | 41.98461 | 12.50064 | 1489 ft | 94 kts | 211° |
| 2026-04-19 08:22 | 41.97889 | 12.49774 | 1347 ft | 89 kts | 200° |
| 2026-04-19 08:23 | 41.97281 | 12.49546 | 999 ft | 89 kts | 190° |
| 2026-04-19 08:23 | 41.96678 | 12.49584 | 579 ft | 89 kts | 166° |
| 2026-04-19 08:23 | 41.96086 | 12.49830 | 225 ft | 81 kts | 162° |
| 2026-04-19 08:23 | 41.95584 | 12.50061 | 69 ft | 67 kts | 162° |
| 2026-04-19 08:24 | 41.95213 | 12.50237 | 55 ft | 46 kts | 165° |
| 2026-04-19 08:24 | 41.94981 | 12.50348 | 57 ft | 29 kts | 159° |
| 2026-04-19 08:24 | 41.94828 | 12.50424 | 59 ft | 19 kts | 136° |
| 2026-04-19 08:24 | 41.94823 | 12.50468 | 59 ft | 4 kts | 61° |
| 2026-04-19 08:25 | 41.94839 | 12.50499 | 56 ft | 1 kts | 9° |
| 2026-04-19 08:25 | 41.94858 | 12.50497 | 57 ft | 8 kts | 352° |
| 2026-04-19 08:25 | 41.94933 | 12.50483 | 57 ft | 13 kts | 352° |
| 2026-04-19 08:25 | 41.95026 | 12.50465 | 57 ft | 16 kts | 349° |
| 2026-04-19 08:26 | 41.95152 | 12.50440 | 57 ft | 18 kts | 350° |
| 2026-04-19 08:26 | 41.95265 | 12.50391 | 57 ft | 17 kts | 328° |
| 2026-04-19 08:26 | 41.95381 | 12.50328 | 57 ft | 18 kts | 356° |
| 2026-04-19 08:26 | 41.95489 | 12.50361 | 57 ft | 13 kts | 20° |
| 2026-04-19 08:27 | 41.95529 | 12.50381 | 57 ft | 4 kts | 54° |
| 2026-04-19 08:27 | 41.95534 | 12.50405 | 55 ft | 0 kts | 94° |